createdAt,value
2022-12-08T00:00:30.313Z,100794.25
2022-12-08T00:03:05.555Z,100945.78
2022-12-08T00:05:56.571Z,100931.84
2022-12-08T00:08:46.891Z,100926.94
2022-12-08T00:11:20.571Z,100912.00
2022-12-08T00:13:52.593Z,100903.06
2022-12-08T00:16:24.768Z,100890.34
2022-12-08T00:18:56.858Z,100920.41
2022-12-08T00:21:31.377Z,100908.28
2022-12-08T00:24:05.034Z,100905.66
2022-12-08T00:26:38.338Z,100822.53
2022-12-08T00:29:15.873Z,100853.66
2022-12-08T00:31:52.901Z,100843.34
2022-12-08T00:34:25.022Z,100891.56
2022-12-08T00:36:57.240Z,100903.41
2022-12-08T00:39:32.275Z,100845.59
2022-12-08T00:42:13.635Z,100817.28
2022-12-08T00:44:47.037Z,100756.41
2022-12-08T00:47:24.503Z,100736.53
2022-12-08T00:49:57.380Z,100774.31
2022-12-08T00:52:29.676Z,100895.31
2022-12-08T00:55:02.177Z,100865.72
2022-12-08T00:58:07.023Z,100889.94
2022-12-08T01:00:42.617Z,100721.75
2022-12-08T01:03:19.454Z,100772.88
2022-12-08T01:05:56.424Z,100876.38
2022-12-08T01:08:28.958Z,100831.47
2022-12-08T01:11:10.224Z,100782.19
2022-12-08T01:13:44.198Z,100877.50
2022-12-08T01:16:29.581Z,100846.50
2022-12-08T01:19:02.580Z,100850.16
2022-12-08T01:21:34.747Z,100730.34
2022-12-08T01:24:07.530Z,100850.91
2022-12-08T01:26:39.798Z,100861.56
2022-12-08T01:29:12.567Z,100854.22
2022-12-08T01:31:47.447Z,100751.34
2022-12-08T01:34:19.539Z,100772.44
2022-12-08T01:36:51.674Z,100762.66
2022-12-08T01:39:23.661Z,100866.59
2022-12-08T01:41:55.724Z,100864.00
2022-12-08T01:44:27.708Z,100860.66
2022-12-08T01:47:00.331Z,100814.81
2022-12-08T01:49:36.734Z,100802.91
2022-12-08T01:52:21.777Z,100829.78
2022-12-08T01:55:05.521Z,100701.13
2022-12-08T01:57:49.476Z,100711.72
2022-12-08T02:00:23.579Z,100692.53
2022-12-08T02:03:12.868Z,100856.50
2022-12-08T02:05:46.679Z,100741.38
2022-12-08T02:08:19.863Z,100776.84
2022-12-08T02:10:53.055Z,100839.81
2022-12-08T02:13:26.008Z,100825.56
2022-12-08T02:16:17.084Z,100835.97
2022-12-08T02:19:22.092Z,100833.16
2022-12-08T02:22:29.550Z,100832.88
2022-12-08T02:26:11.053Z,100827.78
2022-12-08T02:29:12.674Z,100821.66
2022-12-08T02:32:24.841Z,100809.28
2022-12-08T02:35:13.408Z,100817.41
2022-12-08T02:38:12.188Z,100806.19
2022-12-08T02:41:22.005Z,100802.78
2022-12-08T02:44:14.233Z,100800.81
2022-12-08T02:47:00.084Z,100798.13
2022-12-08T02:49:35.805Z,100773.34
2022-12-08T02:52:27.924Z,100788.44
2022-12-08T02:55:08.265Z,100620.31
2022-12-08T02:58:18.222Z,100790.78
2022-12-08T03:01:31.155Z,100774.94
2022-12-08T03:04:35.369Z,100770.53
2022-12-08T03:07:21.179Z,100768.72
2022-12-08T03:10:23.439Z,100782.56
2022-12-08T03:13:16.061Z,100651.84
2022-12-08T03:15:51.941Z,100748.78
2022-12-08T03:18:31.245Z,100766.88
2022-12-08T03:21:06.296Z,100756.34
2022-12-08T03:23:40.459Z,100693.72
2022-12-08T03:26:27.574Z,100741.38
2022-12-08T03:29:00.134Z,100755.06
2022-12-08T03:31:40.572Z,100676.28
2022-12-08T03:34:15.252Z,100729.81
2022-12-08T03:36:47.571Z,100749.69
2022-12-08T03:39:20.000Z,100709.63
2022-12-08T03:41:53.469Z,100726.75
2022-12-08T03:44:25.626Z,100742.03
2022-12-08T03:46:57.765Z,100583.75
2022-12-08T03:49:29.959Z,100729.41
2022-12-08T03:52:08.384Z,100660.50
2022-12-08T03:54:40.560Z,100734.06
2022-12-08T03:57:12.695Z,100708.25
2022-12-08T03:59:47.532Z,100671.56
2022-12-08T04:02:19.727Z,100729.97
2022-12-08T04:04:51.867Z,100730.31
2022-12-08T04:07:26.077Z,100573.81
2022-12-08T04:10:01.237Z,100609.91
2022-12-08T04:12:35.403Z,100652.69
2022-12-08T04:15:08.339Z,100701.41
2022-12-08T04:17:40.384Z,100712.25
2022-12-08T04:20:12.777Z,100638.56
2022-12-08T04:22:47.484Z,100649.28
2022-12-08T04:25:19.951Z,100665.13
2022-12-08T04:27:51.987Z,100718.00
2022-12-08T04:30:24.128Z,100714.28
2022-12-08T04:32:56.348Z,100708.19
2022-12-08T04:35:29.411Z,100711.84
2022-12-08T04:38:01.563Z,100694.19
2022-12-08T04:40:33.684Z,100705.88
2022-12-08T04:43:09.153Z,100605.22
2022-12-08T04:45:42.796Z,100699.22
2022-12-08T04:48:18.410Z,100636.09
2022-12-08T04:50:51.669Z,100547.59
2022-12-08T04:53:29.842Z,100701.97
2022-12-08T04:56:02.028Z,100674.13
2022-12-08T04:58:40.063Z,100516.59
2022-12-08T05:01:13.618Z,100637.06
2022-12-08T05:03:46.017Z,100626.06
2022-12-08T05:06:23.986Z,100528.66
2022-12-08T05:09:01.418Z,100525.06
2022-12-08T05:11:33.711Z,100648.31
2022-12-08T05:14:06.065Z,100623.91
2022-12-08T05:16:39.503Z,100529.94
2022-12-08T05:19:12.524Z,100598.28
2022-12-08T05:21:47.493Z,100704.75
2022-12-08T05:24:25.605Z,100627.31
2022-12-08T05:26:58.032Z,100524.31
2022-12-08T05:29:30.418Z,100668.69
2022-12-08T05:32:02.638Z,100590.00
2022-12-08T05:34:34.880Z,100657.88
2022-12-08T05:37:06.933Z,100683.25
2022-12-08T05:39:39.102Z,100622.41
2022-12-08T05:42:11.187Z,100672.75
2022-12-08T05:44:45.463Z,100682.94
2022-12-08T05:47:17.546Z,100551.72
2022-12-08T05:49:49.934Z,100676.66
2022-12-08T05:52:22.190Z,100572.13
2022-12-08T05:54:54.322Z,100678.56
2022-12-08T05:57:32.822Z,100558.53
2022-12-08T06:00:07.088Z,100614.63
2022-12-08T06:02:39.747Z,100524.56
2022-12-08T06:05:11.954Z,100657.38
2022-12-08T06:07:44.394Z,100549.94
2022-12-08T06:10:16.642Z,100664.69
2022-12-08T06:12:48.700Z,100647.63
2022-12-08T06:15:20.824Z,100547.59
2022-12-08T06:17:52.897Z,100611.03
2022-12-08T06:20:24.987Z,100663.09
2022-12-08T06:22:57.785Z,100610.53
2022-12-08T06:25:30.092Z,100660.00
2022-12-08T06:28:02.337Z,100585.16
2022-12-08T06:30:34.580Z,100536.75
2022-12-08T06:33:06.803Z,100517.06
2022-12-08T06:35:38.871Z,100650.03
2022-12-08T06:38:11.045Z,100586.88
2022-12-08T06:40:45.615Z,100600.50
2022-12-08T06:43:19.238Z,100657.78
2022-12-08T06:45:52.368Z,100668.50
2022-12-08T06:48:24.717Z,100592.69
2022-12-08T06:50:56.928Z,100587.47
2022-12-08T06:53:29.722Z,100609.00
2022-12-08T06:56:02.352Z,100673.47
2022-12-08T06:58:36.060Z,100565.81
2022-12-08T07:01:12.034Z,100601.81
2022-12-08T07:03:53.808Z,100656.63
2022-12-08T07:06:26.012Z,100561.72
2022-12-08T07:08:58.178Z,100602.53
2022-12-08T07:11:30.685Z,100601.06
2022-12-08T07:14:02.953Z,100670.94
2022-12-08T07:16:35.147Z,100631.72
2022-12-08T07:19:08.205Z,100670.94
2022-12-08T07:21:40.462Z,100633.69
2022-12-08T07:24:13.132Z,100622.66
2022-12-08T07:26:48.249Z,100591.78
2022-12-08T07:29:25.931Z,100651.47
2022-12-08T07:31:58.429Z,100643.00
2022-12-08T07:34:30.604Z,100585.66
2022-12-08T07:37:05.527Z,100592.78
2022-12-08T07:39:37.803Z,100623.63
2022-12-08T07:42:10.019Z,100643.13
2022-12-08T07:44:42.263Z,100660.16
2022-12-08T07:47:14.396Z,100657.44
2022-12-08T07:49:46.395Z,100609.91
2022-12-08T07:52:21.696Z,100569.34
2022-12-08T07:55:00.462Z,100495.13
2022-12-08T07:57:32.711Z,100663.31
2022-12-08T08:00:10.704Z,100566.50
2022-12-08T08:02:43.377Z,100564.56
2022-12-08T08:05:15.868Z,100607.47
2022-12-08T08:07:48.445Z,100656.66
2022-12-08T08:10:20.613Z,100666.34
2022-12-08T08:12:59.656Z,100670.66
2022-12-08T08:15:31.879Z,100648.69
2022-12-08T08:18:04.473Z,100619.16
2022-12-08T08:20:36.891Z,100604.88
2022-12-08T08:23:12.107Z,100591.38
2022-12-08T08:25:44.704Z,100664.56
2022-12-08T08:28:16.932Z,100668.94
2022-12-08T08:30:49.285Z,100661.88
2022-12-08T08:33:21.909Z,100513.13
2022-12-08T08:35:55.703Z,100543.09
2022-12-08T08:38:27.960Z,100516.44
2022-12-08T08:41:03.128Z,100667.81
2022-12-08T08:43:38.589Z,100584.75
2022-12-08T08:46:11.559Z,100636.88
2022-12-08T08:52:46.604Z,100509.28
2022-12-08T08:55:19.598Z,100632.19
2022-12-08T08:57:54.966Z,100597.22
2022-12-08T09:00:27.315Z,100670.41
2022-12-08T09:03:02.941Z,100495.31
2022-12-08T09:05:35.525Z,100495.47
2022-12-08T09:08:08.991Z,100600.03
2022-12-08T09:10:49.327Z,100661.53
2022-12-08T09:13:22.355Z,100658.75
2022-12-08T09:16:00.352Z,100568.88
2022-12-08T09:18:33.364Z,100627.13
2022-12-08T09:21:09.332Z,100672.38
2022-12-08T09:23:42.706Z,100559.25
2022-12-08T09:26:15.071Z,100648.78
2022-12-08T09:28:47.761Z,100656.09
2022-12-08T09:31:22.291Z,100602.34
2022-12-08T09:33:57.165Z,100660.84
2022-12-08T09:36:32.078Z,100661.44
2022-12-08T09:39:06.916Z,100653.38
2022-12-08T09:42:02.073Z,100527.47
2022-12-08T09:45:00.615Z,100489.22
2022-12-08T09:47:44.015Z,100500.75
2022-12-08T09:50:38.214Z,100651.47
2022-12-08T09:53:22.647Z,100516.56
2022-12-08T09:59:10.607Z,100591.56
2022-12-08T10:01:52.075Z,100490.75
2022-12-08T10:04:30.039Z,100647.47
2022-12-08T10:07:30.929Z,100483.75
2022-12-08T10:10:24.052Z,100651.47
2022-12-08T10:13:19.614Z,100654.09
2022-12-08T10:16:23.085Z,100644.50
2022-12-08T10:19:31.208Z,100582.72
2022-12-08T10:22:21.215Z,100528.13
2022-12-08T10:25:20.979Z,100570.88
2022-12-08T10:27:55.504Z,100546.34
2022-12-08T10:30:28.004Z,100575.91
2022-12-08T10:33:00.506Z,100628.09
2022-12-08T10:35:52.266Z,100460.06
2022-12-08T10:38:41.195Z,100469.88
2022-12-08T10:41:26.048Z,100620.94
2022-12-08T10:44:08.921Z,100624.97
2022-12-08T10:46:41.194Z,100623.44
2022-12-08T10:49:13.595Z,100614.56
2022-12-08T10:51:45.687Z,100629.84
2022-12-08T10:54:34.521Z,100608.16
2022-12-08T10:57:09.025Z,100548.91
2022-12-08T10:59:45.626Z,100529.19
2022-12-08T11:02:21.268Z,100555.75
2022-12-08T11:05:00.368Z,100621.81
2022-12-08T11:07:32.534Z,100620.22
2022-12-08T11:10:05.496Z,100537.78
2022-12-08T11:12:37.916Z,100484.59
2022-12-08T11:15:17.871Z,100594.03
2022-12-08T11:18:06.713Z,100525.13
2022-12-08T11:20:42.132Z,100601.59
2022-12-08T11:23:26.603Z,100530.38
2022-12-08T11:26:18.966Z,100597.28
2022-12-08T11:28:51.133Z,100591.16
2022-12-08T11:31:43.863Z,100530.78
2022-12-08T11:34:46.881Z,100593.31
2022-12-08T11:37:42.077Z,100559.63
2022-12-08T11:40:25.384Z,100509.56
2022-12-08T11:43:19.777Z,100584.34
2022-12-08T11:46:09.875Z,100582.00
2022-12-08T11:48:54.392Z,100561.19
2022-12-08T11:51:35.736Z,100485.50
2022-12-08T11:54:26.604Z,100557.13
2022-12-08T11:57:05.349Z,100579.22
2022-12-08T11:59:51.149Z,100442.13
2022-12-08T12:02:31.224Z,100472.59
2022-12-08T12:05:46.762Z,100420.25
2022-12-08T12:08:49.822Z,100483.34
2022-12-08T12:12:18.950Z,100575.91
2022-12-08T12:15:12.853Z,100570.44
2022-12-08T12:18:27.871Z,100574.00
2022-12-08T12:21:10.732Z,100558.81
2022-12-08T12:24:05.517Z,100566.28
2022-12-08T12:26:54.389Z,100485.84
2022-12-08T12:29:35.480Z,100509.25
2022-12-08T12:32:11.223Z,100519.78
2022-12-08T12:34:57.951Z,100544.97
2022-12-08T12:37:46.334Z,100553.56
2022-12-08T12:40:24.873Z,100544.00
2022-12-08T12:42:56.969Z,100545.38
2022-12-08T12:45:33.474Z,100507.00
2022-12-08T12:48:05.545Z,100546.47
2022-12-08T12:50:45.269Z,100485.81
2022-12-08T12:53:17.277Z,100540.59
2022-12-08T12:56:02.654Z,100532.41
2022-12-08T12:58:41.025Z,100529.13
2022-12-08T13:01:13.293Z,100538.28
2022-12-08T13:03:51.997Z,100441.78
2022-12-08T13:06:38.929Z,100380.34
2022-12-08T13:09:39.866Z,100533.88
2022-12-08T13:12:22.996Z,100534.94
2022-12-08T13:15:04.736Z,100490.34
2022-12-08T13:17:38.713Z,100530.72
2022-12-08T13:20:22.777Z,100538.81
2022-12-08T13:22:54.802Z,100535.53
2022-12-08T13:25:51.479Z,100536.63
2022-12-08T13:28:31.961Z,100512.84
2022-12-08T13:31:05.983Z,100515.44
2022-12-08T13:33:42.300Z,100536.59
2022-12-08T13:36:29.713Z,100510.38
2022-12-08T13:39:07.052Z,100436.25
2022-12-08T13:41:53.732Z,100430.09
2022-12-08T13:48:20.448Z,100514.56
2022-12-08T13:53:10.295Z,100338.72
2022-12-08T13:57:10.235Z,100412.91
2022-12-08T13:59:53.737Z,100398.78
2022-12-08T14:02:40.793Z,100414.38
2022-12-08T14:05:21.683Z,100487.47
2022-12-08T14:08:58.006Z,100484.72
2022-12-08T14:11:42.949Z,100489.66
2022-12-08T14:14:45.870Z,100483.56
2022-12-08T14:17:21.913Z,100494.66
2022-12-08T14:20:19.623Z,100498.31
2022-12-08T14:22:53.590Z,100363.31
2022-12-08T14:25:28.923Z,100498.78
2022-12-08T14:28:05.125Z,100513.78
2022-12-08T14:30:42.756Z,100495.66
2022-12-08T14:33:17.616Z,100508.50
2022-12-08T14:35:55.753Z,100445.41
2022-12-08T14:38:28.296Z,100444.16
2022-12-08T14:41:09.253Z,100466.47
2022-12-08T14:43:45.065Z,100411.41
2022-12-08T14:46:23.375Z,100489.91
2022-12-08T14:48:57.129Z,100500.72
2022-12-08T14:51:33.719Z,100481.81
2022-12-08T14:54:18.328Z,100432.72
2022-12-08T14:57:04.287Z,100340.41
2022-12-08T14:59:39.546Z,100444.88
2022-12-08T15:02:24.387Z,100498.50
2022-12-08T15:05:19.363Z,100436.50
2022-12-08T15:07:56.080Z,100419.38
2022-12-08T15:10:39.347Z,100516.63
2022-12-08T15:13:11.593Z,100511.28
2022-12-08T15:15:55.640Z,100504.41
2022-12-08T15:18:39.517Z,100513.25
2022-12-08T15:21:14.891Z,100455.88
2022-12-08T15:23:50.734Z,100515.41
2022-12-08T15:26:27.088Z,100433.97
2022-12-08T15:29:13.564Z,100525.59
2022-12-08T15:31:45.914Z,100404.88
2022-12-08T15:34:19.375Z,100429.06
2022-12-08T15:36:54.543Z,100386.28
2022-12-08T15:39:39.361Z,100534.09
2022-12-08T15:42:13.458Z,100429.63
2022-12-08T15:44:46.145Z,100478.03
2022-12-08T15:47:25.025Z,100454.06
2022-12-08T15:49:59.872Z,100516.00
2022-12-08T15:52:32.126Z,100386.75
2022-12-08T15:55:04.495Z,100527.56
2022-12-08T15:58:17.545Z,100531.72
2022-12-08T16:00:53.564Z,100525.41
2022-12-08T16:09:38.476Z,100533.09
2022-12-08T16:15:51.576Z,100533.59
2022-12-08T16:18:30.197Z,100460.84
2022-12-08T16:23:56.004Z,100467.09
2022-12-08T16:27:35.211Z,100496.25
2022-12-08T16:29:22.764Z,100486.97
2022-12-08T16:31:55.572Z,100520.44
2022-12-08T16:34:27.759Z,100345.63
2022-12-08T16:36:59.832Z,100434.13
2022-12-08T16:39:32.314Z,100435.16
2022-12-08T16:42:24.019Z,100450.72
2022-12-08T16:44:56.072Z,100366.22
2022-12-08T16:47:28.249Z,100353.81
2022-12-08T16:50:00.517Z,100408.13
2022-12-08T16:52:33.016Z,100426.16
2022-12-08T16:55:18.594Z,100332.88
2022-12-08T16:57:50.907Z,100509.41
2022-12-08T17:00:26.393Z,100476.25
2022-12-08T17:02:59.130Z,100446.03
2022-12-08T17:05:37.967Z,100429.38
2022-12-08T17:08:10.667Z,100334.63
2022-12-08T17:10:45.808Z,100398.88
2022-12-08T17:13:18.180Z,100336.94
2022-12-08T17:15:50.445Z,100504.66
2022-12-08T17:18:22.828Z,100436.94
2022-12-08T17:21:03.035Z,100407.31
2022-12-08T17:23:35.522Z,100434.03
2022-12-08T17:26:09.315Z,100509.56
2022-12-08T17:29:00.191Z,100339.94
2022-12-08T17:31:33.836Z,100442.97
2022-12-08T17:34:11.151Z,100445.06
2022-12-08T17:36:45.527Z,100450.94
2022-12-08T17:39:18.987Z,100495.16
2022-12-08T17:41:53.352Z,100492.59
2022-12-08T17:44:28.533Z,100504.25
2022-12-08T17:47:02.598Z,100502.16
2022-12-08T17:49:35.031Z,100402.22
2022-12-08T17:52:11.081Z,100500.59
2022-12-08T17:54:42.997Z,100500.50
2022-12-08T17:57:15.607Z,100496.41
2022-12-08T17:59:47.688Z,100503.72
2022-12-08T18:02:19.987Z,100394.06
2022-12-08T18:04:54.177Z,100436.72
2022-12-08T18:07:28.933Z,100500.06
2022-12-08T18:10:01.022Z,100385.25
2022-12-08T18:12:34.719Z,100438.28
2022-12-08T18:15:12.372Z,100486.00
2022-12-08T18:17:45.286Z,100498.38
2022-12-08T18:20:17.797Z,100442.03
2022-12-08T18:22:51.171Z,100412.41
2022-12-08T18:25:23.220Z,100326.47
2022-12-08T18:27:58.809Z,100432.00
2022-12-08T18:30:38.762Z,100477.69
2022-12-08T18:33:15.956Z,100375.81
2022-12-08T18:35:48.081Z,100470.09
2022-12-08T18:38:20.441Z,100388.25
2022-12-08T18:40:52.601Z,100486.00
2022-12-08T18:43:24.785Z,100439.66
2022-12-08T18:46:24.586Z,100429.81
2022-12-08T18:49:00.660Z,100402.06
2022-12-08T18:51:33.252Z,100319.00
2022-12-08T18:54:05.704Z,100312.91
2022-12-08T18:56:37.914Z,100481.91
2022-12-08T18:59:12.358Z,100474.94
2022-12-08T19:01:45.083Z,100476.69
2022-12-08T19:04:28.320Z,100449.22
2022-12-08T19:07:00.961Z,100475.94
2022-12-08T19:09:33.035Z,100459.81
2022-12-08T19:12:06.489Z,100466.72
2022-12-08T19:14:38.848Z,100437.19
2022-12-08T19:17:14.163Z,100478.03
2022-12-08T19:19:46.312Z,100475.44
2022-12-08T19:22:20.783Z,100459.78
2022-12-08T19:24:54.324Z,100357.72
2022-12-08T19:27:29.311Z,100486.00
2022-12-08T19:30:01.690Z,100472.78
2022-12-08T19:32:34.142Z,100450.78
2022-12-08T19:35:07.771Z,100320.38
2022-12-08T19:37:39.993Z,100500.00
2022-12-08T19:40:33.370Z,100455.56
2022-12-08T19:43:24.390Z,100482.59
2022-12-08T19:45:56.627Z,100412.22
2022-12-08T19:48:29.830Z,100462.13
2022-12-08T19:51:02.150Z,100429.41
2022-12-08T19:53:34.704Z,100320.53
2022-12-08T19:56:12.972Z,100400.56
2022-12-08T19:58:48.230Z,100317.28
2022-12-08T20:01:20.415Z,100409.03
2022-12-08T20:03:57.930Z,100457.34
2022-12-08T20:06:30.530Z,100386.47
2022-12-08T20:09:03.149Z,100413.56
2022-12-08T20:11:35.339Z,100481.28
2022-12-08T20:14:13.154Z,100481.16
2022-12-08T20:16:53.507Z,100351.72
2022-12-08T20:19:25.960Z,100361.13
2022-12-08T20:21:58.299Z,100371.31
2022-12-08T20:24:30.509Z,100446.38
2022-12-08T20:27:02.534Z,100463.50
2022-12-08T20:29:34.604Z,100480.81
2022-12-08T20:32:07.302Z,100321.03
2022-12-08T20:34:41.153Z,100371.81
2022-12-08T20:37:13.434Z,100462.13
2022-12-08T20:39:45.678Z,100471.75
2022-12-08T20:42:19.230Z,100380.31
2022-12-08T20:44:58.011Z,100412.63
2022-12-08T20:47:30.446Z,100480.50
2022-12-08T20:50:17.554Z,100369.91
2022-12-08T20:52:52.914Z,100315.53
2022-12-08T20:55:27.305Z,100471.00
2022-12-08T20:57:59.692Z,100470.09
2022-12-08T21:00:32.223Z,100409.47
2022-12-08T21:03:04.749Z,100362.91
2022-12-08T21:05:39.030Z,100414.56
2022-12-08T21:08:14.788Z,100314.06
2022-12-08T21:10:54.764Z,100481.00
2022-12-08T21:13:36.650Z,100440.72
2022-12-08T21:16:13.732Z,100476.44
2022-12-08T21:19:01.496Z,100445.44
2022-12-08T21:21:37.744Z,100475.50
2022-12-08T21:24:15.808Z,100348.50
2022-12-08T21:26:48.345Z,100325.34
2022-12-08T21:29:20.581Z,100480.56
2022-12-08T21:31:52.862Z,100415.22
2022-12-08T21:34:26.973Z,100476.00
2022-12-08T21:36:59.150Z,100460.78
2022-12-08T21:39:34.013Z,100406.09
2022-12-08T21:42:27.974Z,100472.41
2022-12-08T21:45:04.860Z,100442.81
2022-12-08T21:47:37.187Z,100473.06
2022-12-08T21:50:13.068Z,100474.28
2022-12-08T21:52:50.754Z,100437.28
2022-12-08T21:55:23.819Z,100457.94
2022-12-08T21:57:57.293Z,100493.44
2022-12-08T22:00:29.815Z,100405.16
2022-12-08T22:03:02.280Z,100389.72
2022-12-08T22:05:36.186Z,100372.50
2022-12-08T22:08:11.141Z,100383.78
2022-12-08T22:10:48.560Z,100393.13
2022-12-08T22:13:20.812Z,100324.34
2022-12-08T22:16:02.281Z,100474.97
2022-12-08T22:18:36.063Z,100426.78
2022-12-08T22:21:17.312Z,100356.34
2022-12-08T22:23:50.211Z,100414.53
2022-12-08T22:26:22.242Z,100471.06
2022-12-08T22:28:54.683Z,100490.50
2022-12-08T22:31:26.995Z,100383.28
2022-12-08T22:34:00.099Z,100477.00
2022-12-08T22:36:32.336Z,100481.72
2022-12-08T22:39:04.980Z,100426.41
2022-12-08T22:41:37.723Z,100473.84
2022-12-08T22:44:10.422Z,100459.38
2022-12-08T22:46:42.499Z,100472.13
2022-12-08T22:49:14.930Z,100441.34
2022-12-08T22:51:46.996Z,100325.41
2022-12-08T22:54:20.006Z,100298.72
2022-12-08T22:56:52.081Z,100404.00
2022-12-08T22:59:24.932Z,100466.53
2022-12-08T23:01:57.041Z,100449.63
2022-12-08T23:04:29.250Z,100470.63
2022-12-08T23:07:01.832Z,100450.84
2022-12-08T23:09:39.827Z,100418.78
2022-12-08T23:12:12.202Z,100454.34
2022-12-08T23:14:47.440Z,100475.25
2022-12-08T23:17:22.697Z,100465.50
2022-12-08T23:19:55.067Z,100475.16
2022-12-08T23:22:27.110Z,100400.69
2022-12-08T23:24:59.206Z,100468.50
2022-12-08T23:27:32.072Z,100449.63
2022-12-08T23:30:07.384Z,100447.44
2022-12-08T23:32:39.659Z,100476.69
2022-12-08T23:35:11.809Z,100374.28
2022-12-08T23:37:44.390Z,100400.44
2022-12-08T23:40:16.930Z,100465.56
2022-12-08T23:42:49.249Z,100477.91
2022-12-08T23:45:21.327Z,100471.56
2022-12-08T23:47:53.658Z,100471.72
2022-12-08T23:50:25.687Z,100467.78
2022-12-08T23:52:57.699Z,100468.34
2022-12-08T23:55:29.745Z,100475.25
2022-12-08T23:58:02.033Z,100463.75
